Time;durP1;ratioP1;P1;durP2;ratioP2;P2;SDS_P1;SDS_P2;PMS_P1;PMS_P2;Temp;Humidity;BMP_temperature;BMP_pressure;BME280_temperature;BME280_humidity;BME280_pressure;Samples;Min_cycle;Max_cycle;Signal;HPM_P1;HPM_P2
2023/09/19 00:02:12;;;;;;;9.17;5.00;;;;;;;17.97;81.54;95564.34;5031017;28;20758;-76
2023/09/19 00:04:39;;;;;;;7.80;4.70;;;;;;;18.05;81.49;95571.97;5048640;28;20219;-77
2023/09/19 00:07:05;;;;;;;8.63;4.83;;;;;;;17.94;82.22;95564.78;5052661;28;21031;-76
2023/09/19 00:09:36;;;;;;;9.17;4.60;;;;;;;17.92;82.33;95567.69;5075670;28;20654;-77
2023/09/19 00:12:05;;;;;;;8.13;4.63;;;;;;;17.99;81.83;95564.91;5069667;28;20233;-77
2023/09/19 00:14:34;;;;;;;8.00;4.40;;;;;;;18.04;82.15;95559.75;5069118;28;20228;-76
2023/09/19 00:17:00;;;;;;;7.37;4.97;;;;;;;18.06;81.77;95558.47;5073388;28;20231;-77
2023/09/19 00:19:26;;;;;;;8.07;4.60;;;;;;;18.13;81.43;95558.34;5054653;28;20236;-77
2023/09/19 00:21:52;;;;;;;7.63;4.73;;;;;;;18.05;82.09;95556.06;5071150;28;20236;-77
2023/09/19 00:24:18;;;;;;;8.67;4.67;;;;;;;17.98;82.07;95558.81;5075880;28;20309;-77
2023/09/19 00:26:46;;;;;;;11.27;4.80;;;;;;;18.03;82.07;95558.94;5058253;28;20718;-76
2023/09/19 00:29:13;;;;;;;7.20;4.80;;;;;;;17.98;82.25;95542.13;5058234;28;20233;-76
2023/09/19 00:31:39;;;;;;;9.13;4.57;;;;;;;17.96;82.74;95552.16;5066889;28;20254;-77
2023/09/19 00:34:10;;;;;;;9.23;4.53;;;;;;;17.92;82.86;95550.97;5068462;28;20233;-76
2023/09/19 00:36:38;;;;;;;9.67;4.83;;;;;;;17.92;82.77;95543.84;5078823;28;20229;-76
2023/09/19 00:39:05;;;;;;;8.67;4.87;;;;;;;17.89;83.44;95533.69;5071578;28;20315;-76
2023/09/19 00:41:31;;;;;;;7.17;4.73;;;;;;;17.95;82.83;95539.94;5074428;28;20243;-77
2023/09/19 00:43:57;;;;;;;7.23;4.90;;;;;;;18.03;82.89;95536.94;5067454;28;20236;-77
2023/09/19 00:46:22;;;;;;;8.20;4.60;;;;;;;17.97;83.04;95530.72;5071135;28;20235;-76
2023/09/19 00:48:49;;;;;;;9.93;5.17;;;;;;;17.98;83.18;95532.31;5043312;28;20239;-77
2023/09/19 00:51:18;;;;;;;11.90;5.00;;;;;;;17.87;83.50;95538.44;5055284;28;20231;-76
2023/09/19 00:53:46;;;;;;;9.83;5.17;;;;;;;17.84;84.17;95540.75;5058033;28;20238;-77
2023/09/19 00:56:11;;;;;;;10.67;5.00;;;;;;;17.72;84.63;95542.56;5059441;28;20306;-76
2023/09/19 00:58:38;;;;;;;8.73;5.03;;;;;;;17.68;84.40;95536.91;5073517;28;20328;-77
2023/09/19 01:01:06;;;;;;;8.17;5.30;;;;;;;17.71;84.38;95538.28;5081088;28;20228;-76
2023/09/19 01:03:36;;;;;;;7.50;5.20;;;;;;;17.66;85.19;95536.34;5052365;28;20259;-76
2023/09/19 01:06:02;;;;;;;8.57;4.87;;;;;;;17.69;84.74;95535.06;5040516;28;20244;-76
2023/09/19 01:08:29;;;;;;;7.30;5.00;;;;;;;17.72;84.68;95542.56;5050630;28;20406;-77
2023/09/19 01:11:10;;;;;;;10.97;5.30;;;;;;;17.64;85.27;95543.69;5060748;28;20236;-76
2023/09/19 01:13:41;;;;;;;8.63;5.30;;;;;;;17.68;84.90;95538.75;5060799;28;20250;-77
2023/09/19 01:16:15;;;;;;;9.90;5.43;;;;;;;17.52;85.38;95534.94;5075026;28;20228;-76
2023/09/19 01:18:56;;;;;;;8.63;5.20;;;;;;;17.71;84.88;95531.16;5058242;28;20220;-76
2023/09/19 01:21:30;;;;;;;8.27;5.30;;;;;;;17.64;85.49;95545.53;5068032;28;20262;-77
2023/09/19 01:24:26;;;;;;;7.70;5.23;;;;;;;17.57;85.60;95535.06;5046053;28;20244;-77
2023/09/19 01:27:16;;;;;;;11.50;5.90;;;;;;;17.49;85.80;95552.03;5076978;28;20227;-76
2023/09/19 01:29:44;;;;;;;10.60;5.57;;;;;;;17.47;86.45;95550.66;5065825;28;20292;-77
2023/09/19 01:32:10;;;;;;;9.83;5.80;;;;;;;17.16;87.25;95546.41;5062482;28;20244;-76
2023/09/19 01:34:48;;;;;;;9.83;6.00;;;;;;;17.45;86.20;95545.59;5052322;28;20220;-77
2023/09/19 01:37:18;;;;;;;10.80;6.03;;;;;;;17.56;85.99;95533.44;5074774;28;20228;-77
2023/09/19 01:39:44;;;;;;;9.47;5.80;;;;;;;17.52;86.18;95534.13;5062351;28;20225;-76
2023/09/19 01:42:39;;;;;;;9.77;6.20;;;;;;;17.56;85.58;95535.25;5059865;28;20216;-77
2023/09/19 01:45:37;;;;;;;10.37;5.70;;;;;;;17.43;86.02;95523.81;5065634;28;20233;-76
2023/09/19 01:48:21;;;;;;;9.90;6.13;;;;;;;17.28;87.14;95531.38;5073644;28;20947;-77
2023/09/19 01:51:00;;;;;;;16.03;6.13;;;;;;;17.25;86.83;95533.66;5071519;28;20807;-77
2023/09/19 01:53:33;;;;;;;11.40;6.57;;;;;;;17.23;87.17;95531.25;5038733;28;20233;-77
2023/09/19 01:55:59;;;;;;;10.43;5.97;;;;;;;17.24;87.23;95535.50;5019917;28;20623;-76
2023/09/19 01:58:42;;;;;;;12.97;6.30;;;;;;;17.32;87.30;95537.81;5063694;28;20247;-76
2023/09/19 02:01:08;;;;;;;13.17;6.30;;;;;;;17.32;86.70;95540.47;5067148;28;20233;-77
2023/09/19 02:03:34;;;;;;;10.03;6.40;;;;;;;17.25;87.24;95539.75;5061966;28;20815;-77
2023/09/19 02:06:00;;;;;;;12.13;6.43;;;;;;;17.27;86.82;95542.19;5051637;28;20229;-76
2023/09/19 02:08:25;;;;;;;12.70;6.47;;;;;;;17.19;87.46;95542.50;5073507;28;20236;-77
2023/09/19 02:10:52;;;;;;;11.00;6.50;;;;;;;17.20;87.30;95534.34;5042880;28;20285;-74
2023/09/19 02:13:19;;;;;;;10.77;6.60;;;;;;;17.20;87.37;95533.53;5050729;28;20240;-75
2023/09/19 02:15:44;;;;;;;13.10;6.50;;;;;;;17.21;87.47;95527.22;5058661;28;20224;-75
2023/09/19 02:18:11;;;;;;;12.30;7.00;;;;;;;17.31;87.13;95535.41;5066081;28;20233;-74
2023/09/19 02:20:37;;;;;;;12.77;6.90;;;;;;;17.29;87.09;95535.63;5051492;28;20394;-74
2023/09/19 02:23:03;;;;;;;10.40;6.07;;;;;;;17.26;87.08;95533.47;5053484;28;20944;-75
2023/09/19 02:25:29;;;;;;;11.27;6.20;;;;;;;17.34;86.53;95537.59;5038336;28;20232;-74
2023/09/19 02:27:58;;;;;;;10.60;5.93;;;;;;;17.31;86.62;95527.47;5031526;28;20383;-74
2023/09/19 02:30:26;;;;;;;10.80;6.17;;;;;;;17.29;86.69;95540.91;5036615;28;20253;-75
2023/09/19 02:32:52;;;;;;;9.53;6.07;;;;;;;17.16;87.84;95527.09;5048680;28;20271;-74
2023/09/19 02:35:20;;;;;;;12.47;6.10;;;;;;;17.31;87.03;95525.66;5065626;28;20221;-74
2023/09/19 02:37:47;;;;;;;11.10;6.10;;;;;;;17.19;88.02;95526.63;5051448;28;20232;-74
2023/09/19 02:40:25;;;;;;;10.80;5.80;;;;;;;17.10;87.76;95515.56;5064422;28;20224;-75
2023/09/19 02:42:54;;;;;;;10.50;5.87;;;;;;;17.07;87.71;95512.56;5068186;28;20256;-74
2023/09/19 02:45:20;;;;;;;9.83;5.80;;;;;;;17.18;87.06;95507.31;5054421;28;20219;-74
2023/09/19 02:47:46;;;;;;;11.03;5.90;;;;;;;17.19;87.78;95503.63;5050388;28;20928;-74
2023/09/19 02:50:12;;;;;;;8.13;5.20;;;;;;;17.05;88.29;95512.00;5048292;28;20237;-75
2023/09/19 02:52:38;;;;;;;7.87;5.40;;;;;;;16.86;89.27;95508.56;5051810;28;20319;-74
2023/09/19 02:55:05;;;;;;;11.07;5.80;;;;;;;16.90;89.09;95503.63;5038002;28;20686;-75
2023/09/19 02:57:33;;;;;;;10.50;5.53;;;;;;;16.93;88.68;95501.38;5041534;28;20236;-75
2023/09/19 03:00:00;;;;;;;8.70;5.77;;;;;;;16.99;88.31;95504.94;5032643;28;20253;-74
2023/09/19 03:02:27;;;;;;;10.90;5.83;;;;;;;16.96;88.01;95500.09;5062757;28;20235;-74
2023/09/19 03:04:53;;;;;;;10.33;5.70;;;;;;;16.98;88.90;95498.06;5035657;28;20302;-74
2023/09/19 03:07:19;;;;;;;9.30;6.07;;;;;;;16.70;89.37;95493.31;5074575;28;20234;-75
2023/09/19 03:09:44;;;;;;;8.60;5.87;;;;;;;16.83;88.95;95493.97;5032962;28;20618;-75
2023/09/19 03:12:11;;;;;;;9.67;6.10;;;;;;;16.88;88.22;95495.94;5060312;28;20237;-73
2023/09/19 03:14:36;;;;;;;11.23;6.40;;;;;;;16.94;88.59;95502.97;5037314;28;20315;-75
2023/09/19 03:17:04;;;;;;;10.43;5.87;;;;;;;16.87;89.04;95489.03;5052269;28;20255;-73
2023/09/19 03:19:33;;;;;;;10.30;6.00;;;;;;;16.78;88.96;95488.53;5046686;28;20232;-73
2023/09/19 03:21:59;;;;;;;8.80;5.60;;;;;;;16.97;88.51;95485.84;5071036;28;20227;-73
2023/09/19 03:24:24;;;;;;;10.70;5.70;;;;;;;16.97;88.35;95481.38;5065671;28;20232;-73
2023/09/19 03:26:50;;;;;;;11.50;5.80;;;;;;;16.90;88.71;95487.78;5064100;28;20288;-74
2023/09/19 03:29:17;;;;;;;12.97;6.53;;;;;;;16.71;89.65;95485.19;5032267;28;20233;-73
2023/09/19 03:31:42;;;;;;;12.60;6.00;;;;;;;16.60;90.15;95487.75;5057512;28;20698;-73
2023/09/19 03:34:08;;;;;;;10.13;5.70;;;;;;;16.59;89.82;95486.16;5043658;28;20253;-73
2023/09/19 03:36:34;;;;;;;13.03;5.93;;;;;;;16.68;89.67;95490.09;5051146;28;20264;-73
2023/09/19 03:39:00;;;;;;;12.40;6.43;;;;;;;16.73;89.57;95491.06;5034896;28;20320;-74
2023/09/19 03:41:25;;;;;;;10.30;6.00;;;;;;;16.84;89.00;95505.34;5052097;28;20282;-73
2023/09/19 03:43:51;;;;;;;10.50;5.80;;;;;;;16.78;88.14;95498.31;5036646;28;21063;-74
2023/09/19 03:46:16;;;;;;;10.30;5.70;;;;;;;16.77;89.00;95505.44;5071344;28;20228;-74
2023/09/19 03:48:42;;;;;;;10.70;5.70;;;;;;;16.62;89.74;95504.22;5070754;28;20274;-73
2023/09/19 03:51:08;;;;;;;9.30;5.60;;;;;;;16.63;89.75;95503.97;5036492;28;20231;-74
2023/09/19 03:53:33;;;;;;;8.57;6.30;;;;;;;16.60;89.38;95503.59;5054112;28;20234;-74
2023/09/19 03:56:00;;;;;;;12.43;6.27;;;;;;;16.45;90.58;95511.09;5066209;28;20760;-74
2023/09/19 03:58:25;;;;;;;9.50;6.03;;;;;;;16.25;91.28;95513.94;5035460;28;20232;-74
2023/09/19 04:00:55;;;;;;;9.83;6.03;;;;;;;16.24;91.74;95508.91;5043736;28;20238;-72
2023/09/19 04:03:21;;;;;;;10.37;6.13;;;;;;;16.23;91.46;95504.63;5048930;28;20955;-74
2023/09/19 04:05:47;;;;;;;10.23;6.20;;;;;;;16.21;91.50;95509.34;5062839;28;20231;-74
2023/09/19 04:08:13;;;;;;;12.47;6.67;;;;;;;16.31;91.54;95509.63;5071004;28;20247;-74
2023/09/19 04:10:42;;;;;;;13.57;7.10;;;;;;;16.41;91.49;95515.19;5017981;28;20679;-74
2023/09/19 04:13:07;;;;;;;14.07;7.27;;;;;;;16.42;90.97;95511.53;5044670;28;20273;-74
2023/09/19 04:15:33;;;;;;;11.00;7.07;;;;;;;16.09;92.39;95528.56;5069689;28;20724;-74
2023/09/19 04:17:58;;;;;;;14.20;7.37;;;;;;;16.27;91.92;95525.09;5050580;28;20243;-74
2023/09/19 04:20:24;;;;;;;13.60;7.37;;;;;;;16.10;92.48;95531.97;5044913;28;20237;-76
2023/09/19 04:22:49;;;;;;;13.70;6.90;;;;;;;15.95;93.45;95531.53;5048577;28;20235;-74
2023/09/19 04:25:15;;;;;;;16.23;6.93;;;;;;;15.96;93.51;95518.09;5046377;28;20232;-74
2023/09/19 04:27:43;;;;;;;14.10;7.17;;;;;;;15.93;93.80;95523.81;5036511;28;20237;-74
2023/09/19 04:30:11;;;;;;;9.80;6.77;;;;;;;16.16;92.65;95516.09;5047352;28;20640;-74
2023/09/19 04:32:39;;;;;;;13.17;7.00;;;;;;;16.34;92.18;95514.44;5041451;28;20750;-74
2023/09/19 04:35:07;;;;;;;14.23;6.67;;;;;;;16.59;91.04;95518.69;5068468;28;20229;-73
2023/09/19 04:37:33;;;;;;;13.93;6.80;;;;;;;16.67;91.11;95517.56;5065262;28;20247;-75
2023/09/19 04:39:59;;;;;;;11.50;6.50;;;;;;;16.53;91.41;95511.63;5046286;28;20232;-74
2023/09/19 04:42:24;;;;;;;12.03;6.67;;;;;;;16.59;90.88;95517.88;5069316;28;20236;-74
2023/09/19 04:44:52;;;;;;;9.80;6.30;;;;;;;16.69;90.56;95510.22;5067589;28;20237;-74
2023/09/19 04:47:18;;;;;;;11.83;6.40;;;;;;;16.71;90.51;95513.44;5048601;28;20447;-73
2023/09/19 04:49:43;;;;;;;10.20;5.70;;;;;;;16.70;90.38;95512.63;5063558;28;20233;-73
2023/09/19 04:52:09;;;;;;;11.50;6.27;;;;;;;16.80;89.87;95509.47;5054118;28;20224;-72
2023/09/19 04:54:34;;;;;;;10.23;6.17;;;;;;;16.85;89.87;95512.25;5052411;28;20292;-74
2023/09/19 04:57:03;;;;;;;12.33;6.67;;;;;;;16.93;89.99;95509.31;5049466;28;20221;-74
2023/09/19 04:59:28;;;;;;;10.90;6.33;;;;;;;16.96;89.60;95503.53;5031278;28;20311;-73
2023/09/19 05:01:54;;;;;;;16.40;6.67;;;;;;;17.01;89.01;95506.31;5049844;28;20231;-74
2023/09/19 05:04:19;;;;;;;15.20;6.53;;;;;;;17.11;89.09;95500.50;5030263;28;20220;-76
2023/09/19 05:06:45;;;;;;;15.37;6.60;;;;;;;17.04;89.17;95497.94;5066236;28;20220;-74
2023/09/19 05:09:10;;;;;;;11.20;6.07;;;;;;;17.13;88.35;95493.13;5032274;28;20228;-75
2023/09/19 05:11:38;;;;;;;11.40;6.10;;;;;;;17.02;89.00;95493.91;5053672;28;20759;-74
2023/09/19 05:14:03;;;;;;;11.43;5.97;;;;;;;17.13;88.37;95504.53;5064602;28;20232;-74
2023/09/19 05:16:31;;;;;;;13.23;6.63;;;;;;;17.14;88.98;95500.88;5071016;28;20220;-75
2023/09/19 05:18:59;;;;;;;11.73;6.63;;;;;;;17.33;88.05;95504.25;5055892;28;20232;-76
2023/09/19 05:21:28;;;;;;;12.13;6.13;;;;;;;17.45;86.53;95497.94;5054824;28;20236;-75
2023/09/19 05:23:54;;;;;;;12.43;6.37;;;;;;;17.42;86.96;95500.22;5051658;28;20227;-75
2023/09/19 05:26:20;;;;;;;14.03;6.50;;;;;;;17.40;87.29;95503.13;5071192;28;20628;-75
2023/09/19 05:28:47;;;;;;;11.93;6.07;;;;;;;17.56;86.47;95500.84;5061799;28;20236;-74
2023/09/19 05:31:14;;;;;;;12.23;6.00;;;;;;;17.60;85.98;95494.88;5076104;28;20231;-75
2023/09/19 05:33:39;;;;;;;12.33;5.70;;;;;;;17.66;85.03;95493.97;5069936;28;20267;-75
2023/09/19 05:36:05;;;;;;;11.83;5.43;;;;;;;17.69;85.33;95496.16;5039048;28;20289;-74
2023/09/19 05:38:32;;;;;;;10.30;5.60;;;;;;;17.68;85.06;95491.91;5061452;28;21065;-73
2023/09/19 05:40:58;;;;;;;10.43;5.27;;;;;;;17.60;85.64;95488.78;5056446;28;20715;-73
2023/09/19 05:43:23;;;;;;;12.00;5.37;;;;;;;17.76;85.29;95490.75;5058922;28;20279;-73
2023/09/19 05:45:51;;;;;;;10.17;5.80;;;;;;;17.83;85.81;95486.97;5064275;28;20233;-74
2023/09/19 05:48:17;;;;;;;8.87;5.43;;;;;;;17.75;85.31;95487.28;5037524;28;20231;-73
2023/09/19 05:50:43;;;;;;;10.23;5.70;;;;;;;17.75;85.51;95482.00;5072457;28;20677;-73
2023/09/19 05:53:11;;;;;;;7.77;4.90;;;;;;;17.82;85.37;95484.53;5049923;28;20233;-73
2023/09/19 05:55:37;;;;;;;8.10;5.23;;;;;;;17.68;85.42;95483.94;5050757;28;20270;-73
2023/09/19 05:58:03;;;;;;;9.43;5.27;;;;;;;17.83;85.80;95488.78;5049634;28;20260;-74
2023/09/19 06:00:31;;;;;;;8.97;5.10;;;;;;;17.89;85.53;95479.91;5046675;28;20240;-73
2023/09/19 06:02:57;;;;;;;12.27;5.07;;;;;;;17.80;84.89;95490.06;5067362;28;20241;-73
2023/09/19 06:05:24;;;;;;;10.10;4.83;;;;;;;17.96;85.14;95478.75;5048877;28;20294;-74
2023/09/19 06:07:50;;;;;;;9.70;4.63;;;;;;;18.08;84.77;95481.41;5048577;28;20342;-74
2023/09/19 06:10:17;;;;;;;9.73;5.40;;;;;;;17.98;85.04;95473.25;5023052;28;20224;-73
2023/09/19 06:12:45;;;;;;;10.10;4.83;;;;;;;18.15;84.46;95471.47;5048959;28;20268;-74
2023/09/19 06:15:23;;;;;;;7.60;4.67;;;;;;;18.29;83.73;95472.06;5062247;28;20713;-75
2023/09/19 06:17:55;;;;;;;9.47;4.80;;;;;;;18.37;83.54;95479.63;5035597;28;20236;-77
2023/09/19 06:20:23;;;;;;;9.77;4.60;;;;;;;18.17;82.95;95480.81;5039308;28;20810;-76
2023/09/19 06:22:48;;;;;;;8.10;4.80;;;;;;;18.14;83.23;95483.13;5046609;28;20797;-76
2023/09/19 06:25:23;;;;;;;13.73;5.10;;;;;;;18.19;83.61;95472.66;5055518;28;20948;-76
2023/09/19 06:27:52;;;;;;;9.50;5.53;;;;;;;18.14;84.01;95472.53;5048923;28;20263;-76
2023/09/19 06:30:17;;;;;;;7.70;4.97;;;;;;;18.26;83.10;95464.56;5050740;28;20240;-76
2023/09/19 06:32:46;;;;;;;12.17;5.20;;;;;;;18.35;82.76;95465.81;5063303;28;20229;-78
2023/09/19 06:35:12;;;;;;;10.60;5.07;;;;;;;18.32;83.79;95469.72;5065546;28;20239;-77
2023/09/19 06:37:38;;;;;;;6.53;4.70;;;;;;;18.51;81.87;95465.91;5066874;28;20232;-76
2023/09/19 06:40:13;;;;;;;10.47;4.90;;;;;;;18.53;82.81;95476.31;5061063;28;20591;-76
2023/09/19 06:42:50;;;;;;;10.33;4.93;;;;;;;18.56;82.59;95470.50;5053477;28;20810;-76
2023/09/19 06:45:19;;;;;;;8.20;4.97;;;;;;;18.56;83.07;95473.16;5029273;28;20248;-76
2023/09/19 06:47:51;;;;;;;9.10;5.27;;;;;;;18.56;83.42;95466.03;5048604;28;20232;-76
2023/09/19 06:50:19;;;;;;;10.20;4.67;;;;;;;18.68;82.48;95482.69;5059975;28;20241;-76
2023/09/19 06:52:46;;;;;;;8.50;4.83;;;;;;;18.75;81.51;95482.56;5069055;28;20253;-76
2023/09/19 06:55:16;;;;;;;10.10;4.77;;;;;;;18.64;81.39;95473.63;5034748;28;20235;-76
2023/09/19 06:57:44;;;;;;;9.83;4.67;;;;;;;18.64;81.50;95480.75;5057926;28;20232;-75
2023/09/19 07:00:18;;;;;;;10.87;4.73;;;;;;;18.52;82.25;95472.03;5068951;28;20240;-76
2023/09/19 07:03:03;;;;;;;8.03;4.67;;;;;;;18.60;81.42;95482.28;5061231;28;20302;-75
2023/09/19 07:05:31;;;;;;;10.97;4.70;;;;;;;18.74;81.03;95489.72;5039824;28;20231;-76
2023/09/19 07:07:58;;;;;;;6.33;4.93;;;;;;;18.84;80.74;95484.59;5051353;28;20385;-76
2023/09/19 07:10:25;;;;;;;8.67;4.97;;;;;;;18.88;80.77;95484.13;5052903;28;20228;-78
2023/09/19 07:13:03;;;;;;;8.53;4.90;;;;;;;18.81;81.02;95482.44;5040567;28;20241;-77
2023/09/19 07:15:30;;;;;;;10.63;4.73;;;;;;;18.91;80.59;95487.13;5056217;28;20246;-77
2023/09/19 07:17:56;;;;;;;9.07;4.77;;;;;;;19.02;80.24;95488.09;5048031;28;20256;-76
2023/09/19 07:20:23;;;;;;;7.33;4.67;;;;;;;18.93;80.28;95487.69;5071249;28;20232;-76
2023/09/19 07:22:50;;;;;;;8.57;4.97;;;;;;;18.82;81.24;95485.88;5048518;28;20236;-76
2023/09/19 07:25:16;;;;;;;8.17;5.10;;;;;;;18.91;80.87;95486.31;5050178;28;20269;-76
2023/09/19 07:27:42;;;;;;;8.63;4.87;;;;;;;19.07;80.69;95485.53;5068247;28;20233;-77
2023/09/19 07:30:08;;;;;;;6.77;4.37;;;;;;;19.16;79.94;95481.47;5064461;28;20290;-76
2023/09/19 07:32:36;;;;;;;8.07;4.70;;;;;;;19.20;79.03;95478.09;5069533;28;20225;-76
2023/09/19 07:35:02;;;;;;;8.33;5.10;;;;;;;19.22;79.34;95481.34;5032753;28;20220;-76
2023/09/19 07:37:31;;;;;;;7.07;4.63;;;;;;;19.14;80.56;95478.25;5059461;28;20230;-77
2023/09/19 07:39:56;;;;;;;7.53;4.70;;;;;;;19.13;79.74;95485.38;5067989;28;20816;-77
2023/09/19 07:42:22;;;;;;;7.73;4.80;;;;;;;19.17;79.54;95485.72;5045735;28;20229;-77
2023/09/19 07:44:50;;;;;;;9.10;5.10;;;;;;;19.11;80.05;95479.53;5071063;28;20241;-77
2023/09/19 07:47:16;;;;;;;8.67;4.60;;;;;;;19.21;79.46;95482.38;5055118;28;20251;-77
2023/09/19 07:49:42;;;;;;;10.90;5.10;;;;;;;19.35;78.43;95483.66;5051945;28;20271;-77
2023/09/19 07:52:12;;;;;;;8.97;4.80;;;;;;;19.29;78.93;95483.81;5059880;28;20243;-77
2023/09/19 07:54:38;;;;;;;10.57;5.00;;;;;;;19.32;78.57;95486.00;5056812;28;20269;-76
2023/09/19 07:57:04;;;;;;;7.10;4.90;;;;;;;19.45;78.25;95485.72;5036837;28;20239;-77
2023/09/19 07:59:30;;;;;;;7.70;4.80;;;;;;;19.48;77.53;95486.06;5037764;28;20244;-76
2023/09/19 08:01:55;;;;;;;9.03;5.30;;;;;;;19.52;76.77;95488.19;5070259;28;20230;-77
2023/09/19 08:04:21;;;;;;;8.93;4.80;;;;;;;19.58;77.89;95490.72;5067756;28;20224;-77
2023/09/19 08:06:47;;;;;;;10.43;4.83;;;;;;;19.66;76.85;95484.19;5069077;28;20237;-77
2023/09/19 08:09:17;;;;;;;7.47;4.80;;;;;;;19.68;76.44;95482.91;5062211;28;20241;-77
2023/09/19 08:11:42;;;;;;;10.30;5.10;;;;;;;19.73;76.23;95468.88;5066227;28;20236;-77
2023/09/19 08:14:08;;;;;;;10.87;4.90;;;;;;;19.64;77.29;95465.84;5049032;28;20230;-77
2023/09/19 08:16:34;;;;;;;8.73;5.20;;;;;;;19.67;77.38;95464.56;5031090;28;20274;-77
2023/09/19 08:18:59;;;;;;;10.03;5.30;;;;;;;19.65;76.24;95456.03;5037096;28;20244;-76
2023/09/19 08:21:27;;;;;;;10.73;5.30;;;;;;;19.69;76.68;95468.59;5051777;28;20239;-77
2023/09/19 08:23:53;;;;;;;8.27;4.83;;;;;;;19.80;76.40;95457.03;5065622;28;20421;-77
2023/09/19 08:26:19;;;;;;;9.90;5.00;;;;;;;19.91;76.82;95456.16;5067752;28;20260;-77
2023/09/19 08:28:45;;;;;;;7.33;4.93;;;;;;;20.03;76.16;95453.41;5057308;28;20260;-78
2023/09/19 08:31:10;;;;;;;11.53;5.37;;;;;;;20.07;76.18;95443.88;5071019;28;20240;-77
2023/09/19 08:33:36;;;;;;;8.77;5.27;;;;;;;20.12;76.46;95457.25;5037568;28;20220;-77
2023/09/19 08:36:04;;;;;;;11.53;5.50;;;;;;;20.02;77.45;95457.09;5038556;28;20672;-77
2023/09/19 08:38:32;;;;;;;7.90;5.40;;;;;;;20.11;76.27;95469.72;5065756;28;20241;-77
2023/09/19 08:40:59;;;;;;;10.50;5.47;;;;;;;20.17;76.51;95466.09;5038694;28;20236;-77
2023/09/19 08:43:25;;;;;;;13.63;5.70;;;;;;;20.30;74.63;95462.28;5073695;28;20296;-76
2023/09/19 08:46:13;;;;;;;14.90;5.60;;;;;;;20.27;74.67;95462.00;5052232;28;20224;-74
2023/09/19 08:48:40;;;;;;;9.77;5.50;;;;;;;20.22;74.87;95457.41;5059924;28;20294;-77
2023/09/19 08:51:07;;;;;;;12.67;5.77;;;;;;;20.27;74.77;95454.03;5039407;28;20711;-78
2023/09/19 08:53:55;;;;;;;10.90;5.70;;;;;;;20.29;74.68;95455.38;5038594;28;20615;-77
2023/09/19 08:56:22;;;;;;;11.27;5.50;;;;;;;20.28;75.92;95456.41;5068526;28;20847;-77
2023/09/19 08:58:53;;;;;;;11.30;5.47;;;;;;;20.42;74.45;95449.69;5048146;28;20244;-77
2023/09/19 09:01:27;;;;;;;16.97;5.23;;;;;;;20.32;74.67;95454.91;5040844;28;20702;-77
2023/09/19 09:03:53;;;;;;;13.77;5.37;;;;;;;20.35;75.02;95446.41;5051664;28;20317;-76
2023/09/19 09:06:23;;;;;;;10.10;5.17;;;;;;;20.55;75.16;95444.00;5056530;28;20232;-76
2023/09/19 09:08:50;;;;;;;11.07;5.30;;;;;;;20.63;73.99;95437.44;5068474;28;20232;-76
2023/09/19 09:11:16;;;;;;;10.40;5.40;;;;;;;20.62;74.40;95441.97;5049722;28;20233;-78
2023/09/19 09:13:42;;;;;;;9.70;5.60;;;;;;;20.62;74.17;95436.63;5041809;28;20264;-76
2023/09/19 09:16:08;;;;;;;12.47;5.60;;;;;;;20.74;73.62;95439.16;5061831;28;20236;-77
2023/09/19 09:18:34;;;;;;;9.03;5.40;;;;;;;20.80;73.76;95440.84;5042042;28;20281;-76
2023/09/19 09:20:59;;;;;;;16.33;5.87;;;;;;;20.79;73.63;95431.22;5055524;28;20229;-77
2023/09/19 09:23:28;;;;;;;12.37;6.00;;;;;;;20.89;73.38;95428.69;5070804;28;20247;-77
2023/09/19 09:25:56;;;;;;;9.83;5.80;;;;;;;20.97;72.64;95430.09;5058770;28;20274;-77
2023/09/19 09:28:26;;;;;;;12.27;6.00;;;;;;;21.05;72.06;95425.13;5050954;28;20329;-78
2023/09/19 09:30:52;;;;;;;10.40;5.43;;;;;;;21.00;72.66;95419.72;5054521;28;20311;-77
2023/09/19 09:33:18;;;;;;;10.20;5.43;;;;;;;21.06;72.64;95415.28;5039682;28;20235;-76
2023/09/19 09:36:03;;;;;;;10.63;5.70;;;;;;;21.27;71.89;95419.75;5052199;28;20236;-77
2023/09/19 09:38:48;;;;;;;14.93;6.17;;;;;;;21.37;71.05;95417.94;5053403;28;20240;-77
2023/09/19 09:41:15;;;;;;;10.90;5.80;;;;;;;21.20;70.92;95411.97;5039125;28;20325;-77
2023/09/19 09:43:44;;;;;;;12.23;5.57;;;;;;;21.15;70.31;95406.59;5054196;28;20267;-77
2023/09/19 09:49:14;;;;;;;12.17;5.60;;;;;;;21.36;71.52;95399.56;5066228;28;20319;-77
2023/09/19 09:51:39;;;;;;;11.38;5.55;;;;;;;21.47;71.34;95404.72;5052188;28;20262;-76
2023/09/19 09:54:14;;;;;;;11.33;5.60;;;;;;;21.59;71.48;95393.09;5041578;28;20316;-77
2023/09/19 09:56:59;;;;;;;11.03;5.53;;;;;;;21.55;71.03;95400.78;5044839;28;20228;-78
2023/09/19 09:59:59;;;;;;;12.70;5.27;;;;;;;21.63;70.22;95384.31;5051032;28;20240;-77
2023/09/19 10:02:29;;;;;;;16.87;5.30;;;;;;;21.61;69.87;95394.44;5031373;28;20332;-76
2023/09/19 10:05:13;;;;;;;11.85;5.30;;;;;;;21.60;69.27;95395.50;5071089;28;20247;-78
2023/09/19 10:07:42;;;;;;;8.57;5.10;;;;;;;21.67;70.72;95393.41;5052121;28;20231;-77
2023/09/19 10:10:19;;;;;;;12.87;8.40;;;;;;;21.75;70.99;95394.78;5044938;28;20274;-78
2023/09/19 10:12:47;;;;;;;13.50;6.70;;;;;;;21.78;70.72;95396.94;5051532;28;20240;-76
2023/09/19 10:15:17;;;;;;;11.43;5.80;;;;;;;21.85;69.55;95392.22;5024431;28;20253;-76
2023/09/19 10:17:44;;;;;;;9.27;5.30;;;;;;;21.82;69.66;95388.19;5044554;28;20231;-78
2023/09/19 10:20:22;;;;;;;9.70;5.40;;;;;;;21.79;69.51;95393.22;5026078;28;20224;-76
2023/09/19 10:22:57;;;;;;;11.87;5.70;;;;;;;21.81;69.60;95388.41;5070888;28;20250;-76
2023/09/19 10:25:32;;;;;;;8.57;5.07;;;;;;;21.78;69.73;95381.75;5066427;28;20223;-79
2023/09/19 10:28:02;;;;;;;10.45;5.47;;;;;;;21.80;69.09;95387.63;5055074;28;20243;-76
2023/09/19 10:30:30;;;;;;;10.10;5.20;;;;;;;21.86;70.00;95383.16;5041340;28;20233;-77
2023/09/19 10:33:02;;;;;;;8.83;5.43;;;;;;;21.91;69.78;95380.50;5052730;28;20237;-77
2023/09/19 10:35:28;;;;;;;8.37;5.43;;;;;;;21.94;69.44;95378.16;5047616;28;20239;-77
2023/09/19 10:37:57;;;;;;;14.37;5.47;;;;;;;21.92;70.13;95371.47;5054196;28;20236;-75
2023/09/19 10:40:30;;;;;;;10.63;5.33;;;;;;;22.00;69.24;95363.78;5051374;28;20700;-77
2023/09/19 10:43:00;;;;;;;10.63;5.17;;;;;;;22.05;70.09;95371.00;5042713;28;20773;-77
2023/09/19 10:45:26;;;;;;;9.40;5.50;;;;;;;22.07;69.32;95368.84;5071251;28;20228;-78
2023/09/19 10:47:52;;;;;;;8.15;5.20;;;;;;;22.05;68.92;95365.66;5043305;28;20236;-78
2023/09/19 10:50:23;;;;;;;8.93;5.40;;;;;;;21.97;69.53;95364.28;5059224;28;20235;-78
2023/09/19 10:52:51;;;;;;;12.20;5.63;;;;;;;21.96;68.84;95367.22;5057417;28;20236;-77
2023/09/19 10:55:18;;;;;;;8.15;5.38;;;;;;;22.01;68.41;95361.91;5070993;28;20702;-77
2023/09/19 10:57:46;;;;;;;9.73;5.77;;;;;;;21.97;69.11;95352.84;5054672;28;20236;-78
2023/09/19 11:00:23;;;;;;;9.67;5.33;;;;;;;22.02;68.32;95358.16;5052656;28;20900;-76
2023/09/19 11:03:30;;;;;;;11.52;5.50;;;;;;;22.10;69.49;95353.16;5044974;28;20671;-77
2023/09/19 11:06:10;;;;;;;8.50;5.63;;;;;;;22.16;68.94;95350.50;5026085;28;20264;-77
2023/09/19 11:08:57;;;;;;;10.10;5.53;;;;;;;22.19;70.21;95352.66;5041986;28;20283;-76
2023/09/19 11:11:42;;;;;;;7.18;5.50;;;;;;;22.22;67.84;95346.78;5060929;28;20239;-77
2023/09/19 11:14:20;;;;;;;8.73;6.00;;;;;;;22.25;68.63;95352.41;5067648;28;20654;-76
2023/09/19 11:17:17;;;;;;;12.30;5.70;;;;;;;22.27;69.27;95342.28;5056606;28;20228;-77
2023/09/19 11:22:56;;;;;;;11.93;5.90;;;;;;;22.32;69.06;95341.50;5064411;28;20706;-77
2023/09/19 11:25:31;;;;;;;9.17;5.90;;;;;;;22.40;68.24;95338.34;5068785;28;20343;-78
2023/09/19 11:28:05;;;;;;;11.10;6.10;;;;;;;22.42;68.09;95342.34;5067712;28;20290;-78
2023/09/19 11:30:37;;;;;;;10.15;6.20;;;;;;;22.47;67.90;95337.03;5055904;28;20601;-77
2023/09/19 11:33:33;;;;;;;10.45;6.07;;;;;;;22.50;67.84;95333.81;5047068;28;20224;-77
2023/09/19 11:36:09;;;;;;;10.57;5.95;;;;;;;22.57;67.26;95328.25;5067308;28;20239;-78
2023/09/19 11:38:44;;;;;;;9.63;6.05;;;;;;;22.63;67.63;95319.19;5070839;28;20236;-78
2023/09/19 11:41:22;;;;;;;9.67;5.80;;;;;;;22.64;66.60;95321.59;5071676;28;20220;-78
2023/09/19 11:43:48;;;;;;;10.50;6.10;;;;;;;22.79;66.57;95308.28;5064549;28;20328;-77
2023/09/19 11:46:16;;;;;;;10.50;6.30;;;;;;;22.94;66.83;95293.31;5065755;28;20233;-77